Campo di Volo Cordovado

IT-0464 · Friuli Venezia Giulia, 意大利

罗盘
风向 的 风向 320° Campo di Volo Cordovado 1/19
风: 3 kt, 1 beaufort

2 kt

2 kt
改变
0 ft 2.000 4.000 6.000 8.000 10.000
Cloud Cloud
FEW 10.000
METAR LIPI 280655Z 32003KT 9999 FEW100 M03/M04 Q1017

METAR Campo di Volo Cordovado - IT-0464

Campo di Volo Cordovado是,意大利中的小机场。 该机场有一条跑道: 1/19. 该领域的国际民航组织标志是IT-0464.

这份报告是针对2023年1月28日 07:55, 当地时间在Rivolto Air Base进行的。

机场观察

风向为320°,速度为3 kt。

可见度为10 km 或者更多。

有几云在10.000 ft的高度。 没有观察到天花板。

温度为-3 °C,阵风为-7 °C。 露点为-4 °C,相对湿度为93%。 海平面上的气压为1017 hPa (QNH)。

白天

今天,太阳从07:34升起,在17:07降落。 这适用于Campo di Volo Cordovado,世界夏令时可能有所不同。 当地时间与世界标准时间之间的时差为+1 小时。 当前,没有夏令时有效。

公司介绍

我们没有关于这个机场的公司信息。

体会

到Vliegles.nl去找飞行课程,跳伞和其他飞行体验。 浏览页面,了解Campo di Volo Cordovado附近所有可用的活动。 你也可以使用搜索功能来寻找你所在地附近的特定飞行课程、跳伞或其他飞行体验。

跑道

Id 标题 侧风 逆风 侧风 %
1/19 010°-190° 2 kt 2 kt 77 %

逆风成分最大的方向会被突出显示,并用于横风计算。 这并不一定意味着这个方向在使用。

乌云

10.000 ft FEW 几云

温度 & 天气

温度 -3 °C
露点 -4 °C
相对湿度 93%
风寒 -7 °C
Kp-index 1 (0-9)

白天

日出
07:34
中午
12:20
日落
17:06 (8:44)

小工具

你想在你的网站上有一个关于Campo di Volo Cordovado的当前航空天气(METAR)的小部件吗?

显示HTML代码

我们和第三方通过cookies跟踪您在我们网站上的互联网行为。如果你继续,我们认为你同意我们的饼干政策